| Date | Time | Temp. (oF) | Dew Point (oF) | Rel. Hum. (%) | Press. (in.) | Wind Dir. | Wind Speed (mph) | Hourly Rainfall (in.) |
|
|---|---|---|---|---|---|---|---|---|---|
| 1 | 01/29 | 00:00 | 6 | 2 | 87 | 30.71 | SSW | 1 | 0.00 |
| 2 | 01/28 | 23:00 | 7 | 3 | 84 | 30.73 | SSW | 0 | 0.00 |
| 3 | 01/28 | 22:00 | 9 | 4 | 81 | 30.74 | SSW | 0 | 0.00 |
| 4 | 01/28 | 21:00 | 11 | 4 | 75 | 30.76 | SSW | 1 | 0.00 |
| 5 | 01/28 | 20:00 | 14 | 3 | 63 | 30.77 | SW | 0 | 0.00 |
| 6 | 01/28 | 19:00 | 17 | 4 | 57 | 30.77 | SSW | 2 | 0.00 |
| 7 | 01/28 | 18:00 | 19 | 4 | 53 | 30.77 | SSW | 3 | 0.00 |
| 8 | 01/28 | 17:00 | 22 | 5 | 49 | 30.75 | WSW | 1 | 0.00 |
| 9 | 01/28 | 16:00 | 23 | 5 | 46 | 30.74 | W | 2 | 0.00 |
| 10 | 01/28 | 15:00 | 22 | 6 | 50 | 30.75 | NW | 2 | 0.00 |
| 11 | 01/28 | 14:00 | 20 | 5 | 52 | 30.76 | NW | 3 | 0.00 |
| 12 | 01/28 | 13:00 | 18 | 5 | 57 | 30.79 | N | 4 | 0.00 |
| 13 | 01/28 | 12:00 | 16 | 4 | 60 | 30.82 | WNW | 9 | 0.00 |
| 14 | 01/28 | 11:00 | 13 | 2 | 63 | 30.85 | SW | 1 | 0.00 |
| 15 | 01/28 | 10:00 | 11 | 2 | 67 | 30.85 | NNW | 5 | 0.00 |
| 16 | 01/28 | 09:00 | 6 | 0 | 74 | 30.85 | NW | 4 | 0.00 |
| 17 | 01/28 | 08:00 | 2 | -2 | 80 | 30.84 | WNW | 3 | 0.00 |
| 18 | 01/28 | 07:00 | 1 | -4 | 78 | 30.83 | WSW | 2 | 0.00 |
| 19 | 01/28 | 06:00 | 2 | -4 | 75 | 30.80 | NW | 3 | 0.00 |
| 20 | 01/28 | 05:00 | 3 | -4 | 71 | 30.78 | NW | 5 | 0.00 |
| 21 | 01/28 | 04:00 | 4 | -4 | 66 | 30.77 | WNW | 1 | 0.00 |
| 22 | 01/28 | 03:00 | 5 | -4 | 65 | 30.76 | NW | 3 | 0.00 |
| 23 | miss | miss | miss | miss | miss | miss | miss | miss | |
| 24 | 01/28 | 02:22 | 5 | -4 | 63 | 30.75 | NNW | 10 | 0.00 |
| 25 | miss | miss | miss | miss | miss | miss | miss | miss | |
| 26 | 01/28 | 02:21 | 5 | -5 | 62 | 30.75 | NW | 11 | 0.00 |
| 27 | miss | miss | miss | miss | miss | miss | miss | miss | |
| 28 | 01/28 | 02:21 | 5 | -5 | 62 | 30.75 | NW | 11 | 0.00 |
| 29 | miss | miss | miss | miss | miss | miss | miss | miss | |
| 30 | 01/28 | 02:21 | 5 | -5 | 62 | 30.75 | NW | 11 | 0.00 |
| 31 | miss | miss | miss | miss | miss | miss | miss | miss | |
| 32 | 01/28 | 02:21 | 5 | -5 | 62 | 30.75 | NW | 11 | 0.00 |
| 33 | miss | miss | miss | miss | miss | miss | miss | miss | |
| 34 | 01/28 | 02:21 | 5 | -5 | 62 | 30.75 | NW | 11 | 0.00 |
| 35 | miss | miss | miss | miss | miss | miss | miss | miss | |
| 36 | 01/28 | 02:21 | 5 | -5 | 62 | 30.75 | NW | 11 | 0.00 |
| 37 | miss | miss | miss | miss | miss | miss | miss | miss | |
| 38 | 01/28 | 02:21 | 5 | -5 | 62 | 30.75 | NW | 11 | 0.00 |
| 39 | miss | miss | miss | miss | miss | miss | miss | miss | |
| 40 | 01/28 | 02:21 | 5 | -5 | 62 | 30.75 | NW | 11 | 0.00 |
| 41 | miss | miss | miss | miss | miss | miss | miss | miss | |
| 42 | 01/28 | 02:21 | 5 | -5 | 62 | 30.75 | NW | 11 | 0.00 |
| 43 | miss | miss | miss | miss | miss | miss | miss | miss | |
| 44 | 01/28 | 02:21 | 5 | -5 | 62 | 30.75 | NW | 11 | 0.00 |
| 45 | miss | miss | miss | miss | miss | miss | miss | miss | |
| 46 | 01/28 | 02:21 | 5 | -5 | 62 | 30.75 | NW | 11 | 0.00 |
| 47 | 01/28 | 02:00 | 5 | -5 | 61 | 30.74 | NNW | 4 | 0.00 |
| 48 | 01/28 | 01:00 | 7 | -5 | 57 | 30.73 | NW | 2 | 0.00 |
| 49 | 01/28 | 00:00 | 7 | -6 | 54 | 30.72 | NNW | 4 | 0.00 |
| 50 | 01/27 | 23:00 | 9 | -5 | 51 | 30.71 | N | 5 | 0.00 |
| 51 | 01/27 | 22:00 | 9 | -5 | 50 | 30.69 | ENE | 2 | 0.00 |
| 52 | 01/27 | 21:00 | 12 | -3 | 49 | 30.67 | NNW | 8 | 0.00 |
| 53 | 01/27 | 20:00 | 12 | -2 | 51 | 30.65 | NW | 5 | 0.00 |
| 54 | 01/27 | 19:00 | 13 | -1 | 52 | 30.61 | NW | 5 | 0.00 |
| 55 | 01/27 | 18:00 | 15 | 0 | 49 | 30.57 | NW | 6 | 0.00 |
| 56 | 01/27 | 17:00 | 17 | 0 | 46 | 30.53 | NW | 7 | 0.00 |
| 57 | 01/27 | 16:00 | 19 | 2 | 47 | 30.50 | NNW | 13 | 0.00 |
| 58 | 01/27 | 15:00 | 18 | 2 | 49 | 30.48 | NW | 12 | 0.00 |
| 59 | 01/27 | 14:00 | 17 | 2 | 52 | 30.47 | NNW | 15 | 0.00 |
| 60 | 01/27 | 13:00 | 15 | 0 | 53 | 30.48 | NNE | 14 | 0.00 |
| 61 | 01/27 | 12:00 | 13 | 0 | 54 | 30.48 | N | 19 | 0.00 |
| 62 | 01/27 | 11:00 | 12 | 0 | 58 | 30.47 | N | 5 | 0.00 |
| 63 | 01/27 | 10:00 | 10 | 0 | 61 | 30.45 | NNW | 15 | 0.00 |
| 64 | 01/27 | 09:00 | 8 | -1 | 65 | 30.43 | NW | 8 | 0.00 |
| 65 | 01/27 | 08:00 | 6 | -2 | 66 | 30.40 | NW | 8 | 0.00 |
| 66 | 01/27 | 07:00 | 6 | -4 | 61 | 30.35 | NW | 9 | 0.00 |
| 67 | 01/27 | 06:00 | 7 | -3 | 61 | 30.30 | NW | 6 | 0.00 |
| 68 | 01/27 | 05:00 | 9 | 0 | 68 | 30.26 | NNW | 7 | 0.00 |
| 69 | 01/27 | 04:00 | 11 | 2 | 69 | 30.22 | NW | 11 | 0.00 |
| 70 | miss | miss | miss | miss | miss | miss | miss | miss | |
| 71 | 01/27 | 03:14 | 12 | 4 | 72 | 30.20 | NNW | 8 | 0.00 |
| 72 | miss | miss | miss | miss | miss | miss | miss | miss | |
| 73 | 01/27 | 03:12 | 12 | 4 | 72 | 30.19 | NNW | 14 | 0.00 |
| 74 | miss | miss | miss | miss | miss | miss | miss | miss | |
| 75 | 01/27 | 03:12 | 12 | 4 | 72 | 30.19 | NNW | 14 | 0.00 |
| 76 | miss | miss | miss | miss | miss | miss | miss | miss | |
| 77 | 01/27 | 03:12 | 12 | 4 | 72 | 30.19 | NNW | 14 | 0.00 |
| 78 | miss | miss | miss | miss | miss | miss | miss | miss | |
| 79 | 01/27 | 03:12 | 12 | 4 | 72 | 30.19 | NNW | 14 | 0.00 |
| 80 | miss | miss | miss | miss | miss | miss | miss | miss | |
| 81 | 01/27 | 03:12 | 12 | 4 | 72 | 30.19 | NNW | 14 | 0.00 |
| 82 | miss | miss | miss | miss | miss | miss | miss | miss | |
| 83 | 01/27 | 03:12 | 12 | 4 | 72 | 30.19 | NNW | 14 | 0.00 |
| 84 | miss | miss | miss | miss | miss | miss | miss | miss | |
| 85 | 01/27 | 03:12 | 12 | 4 | 72 | 30.19 | NNW | 14 | 0.00 |
| 86 | miss | miss | miss | miss | miss | miss | miss | miss | |
| 87 | 01/27 | 03:12 | 12 | 4 | 72 | 30.19 | NNW | 14 | 0.00 |
| 88 | miss | miss | miss | miss | miss | miss | miss | miss | |
| 89 | 01/27 | 03:12 | 12 | 4 | 72 | 30.19 | NNW | 14 | 0.00 |
| 90 | miss | miss | miss | miss | miss | miss | miss | miss | |
| 91 | 01/27 | 03:12 | 12 | 4 | 72 | 30.19 | NNW | 14 | 0.00 |
| 92 | miss | miss | miss | miss | miss | miss | miss | miss | |
| 93 | 01/27 | 03:12 | 12 | 4 | 72 | 30.19 | NNW | 14 | 0.00 |
| 94 | 01/27 | 03:00 | 12 | 5 | 73 | 30.18 | NNW | 6 | 0.00 |
| 95 | 01/27 | 02:00 | 14 | 6 | 71 | 30.15 | NNW | 8 | 0.00 |
| 96 | 01/27 | 01:00 | 16 | 7 | 69 | 30.10 | NNW | 11 | 0.00 |
| 97 | 01/27 | 00:00 | 18 | 9 | 70 | 30.06 | NW | 10 | 0.00 |